createdAt,value
2018-09-15T00:01:43.667Z,87.10
2018-09-15T00:04:17.960Z,86.10
2018-09-15T00:06:52.986Z,86.30
2018-09-15T00:09:27.160Z,85.60
2018-09-15T00:12:01.487Z,87.20
2018-09-15T00:14:35.872Z,86.90
2018-09-15T00:17:10.546Z,86.00
2018-09-15T00:19:45.788Z,87.00
2018-09-15T00:22:20.093Z,87.10
2018-09-15T00:24:54.600Z,87.10
2018-09-15T00:27:28.823Z,87.00
2018-09-15T00:30:03.337Z,87.10
2018-09-15T00:32:37.584Z,86.60
2018-09-15T00:35:12.015Z,86.60
2018-09-15T00:37:46.361Z,86.00
2018-09-15T00:40:20.715Z,86.70
2018-09-15T00:42:55.026Z,86.60
2018-09-15T00:45:29.364Z,86.40
2018-09-15T00:48:03.674Z,86.80
2018-09-15T00:50:37.886Z,86.60
2018-09-15T00:53:12.184Z,86.40
2018-09-15T00:55:46.450Z,86.70
2018-09-15T00:58:20.647Z,86.80
2018-09-15T01:00:54.911Z,87.40
2018-09-15T01:03:29.225Z,87.60
2018-09-15T01:06:03.686Z,87.70
2018-09-15T01:08:38.075Z,88.10
2018-09-15T01:11:12.414Z,88.30
2018-09-15T01:13:46.761Z,88.50
2018-09-15T01:16:20.921Z,88.50
2018-09-15T01:18:55.317Z,88.30
2018-09-15T01:21:29.662Z,87.60
2018-09-15T01:24:04.038Z,88.20
2018-09-15T01:26:38.438Z,88.40
2018-09-15T01:29:12.675Z,88.20
2018-09-15T01:31:47.006Z,88.20
2018-09-15T01:34:21.344Z,88.10
2018-09-15T01:36:55.690Z,88.20
2018-09-15T01:39:29.915Z,89.00
2018-09-15T01:42:04.345Z,89.20
2018-09-15T01:44:38.646Z,88.60
2018-09-15T01:47:12.975Z,89.30
2018-09-15T01:49:47.114Z,89.40
2018-09-15T01:52:21.606Z,89.40
2018-09-15T01:54:56.053Z,89.70
2018-09-15T01:57:30.477Z,89.80
2018-09-15T02:00:04.714Z,89.90
2018-09-15T02:02:39.116Z,90.00
2018-09-15T02:05:13.460Z,89.90
2018-09-15T02:07:47.717Z,90.10
2018-09-15T02:10:22.055Z,89.80
2018-09-15T02:12:56.307Z,90.40
2018-09-15T02:15:30.502Z,90.40
2018-09-15T02:18:04.933Z,90.40
2018-09-15T02:20:39.137Z,90.40
2018-09-15T02:23:13.654Z,90.50
2018-09-15T02:25:48.139Z,90.70
2018-09-15T02:28:22.430Z,90.90
2018-09-15T02:30:56.747Z,91.00
2018-09-15T02:33:31.093Z,90.50
2018-09-15T02:36:05.429Z,91.10
2018-09-15T02:38:39.808Z,91.10
2018-09-15T02:41:14.909Z,90.80
2018-09-15T02:43:49.153Z,91.20
2018-09-15T02:46:23.332Z,91.40
2018-09-15T02:48:57.618Z,91.50
2018-09-15T02:51:31.902Z,91.60
2018-09-15T02:54:06.239Z,91.60
2018-09-15T02:56:40.479Z,91.70
2018-09-15T02:59:14.774Z,91.90
2018-09-15T03:01:48.989Z,91.80
2018-09-15T03:04:23.450Z,91.90
2018-09-15T03:06:57.818Z,91.90
2018-09-15T03:09:32.268Z,92.10
2018-09-15T03:12:06.591Z,92.10
2018-09-15T03:14:40.941Z,92.10
2018-09-15T03:17:15.203Z,91.90
2018-09-15T03:19:49.495Z,92.00
2018-09-15T03:22:23.698Z,92.10
2018-09-15T03:24:58.144Z,92.40
2018-09-15T03:27:32.459Z,92.50
2018-09-15T03:30:06.778Z,92.20
2018-09-15T03:32:41.076Z,93.00
2018-09-15T03:35:15.487Z,93.00
2018-09-15T03:37:49.873Z,93.40
2018-09-15T03:40:24.309Z,93.40
2018-09-15T03:42:58.596Z,93.40
2018-09-15T03:45:32.971Z,93.20
2018-09-15T03:48:07.222Z,93.30
2018-09-15T03:50:41.410Z,93.30
2018-09-15T03:53:15.869Z,93.30
2018-09-15T03:55:50.113Z,93.40
2018-09-15T03:58:24.397Z,93.70
2018-09-15T04:00:58.840Z,93.90
2018-09-15T04:03:33.065Z,93.70
2018-09-15T04:06:07.347Z,93.80
2018-09-15T04:08:41.605Z,93.80
2018-09-15T04:11:16.066Z,93.80
2018-09-15T04:13:50.276Z,94.20
2018-09-15T04:16:24.642Z,94.20
2018-09-15T04:18:58.966Z,94.20
2018-09-15T04:21:33.190Z,94.30
2018-09-15T04:24:07.615Z,94.30
2018-09-15T04:26:41.891Z,94.50
2018-09-15T04:29:16.311Z,94.50
2018-09-15T04:31:50.658Z,94.50
2018-09-15T04:34:24.911Z,94.50
2018-09-15T04:36:59.215Z,94.60
2018-09-15T04:39:33.508Z,94.70
2018-09-15T04:42:07.832Z,94.70
2018-09-15T04:44:42.080Z,94.70
2018-09-15T04:47:16.538Z,94.80
2018-09-15T04:49:50.795Z,94.80
2018-09-15T04:52:24.951Z,94.70
2018-09-15T04:54:59.318Z,94.80
2018-09-15T04:57:33.651Z,95.10
2018-09-15T05:00:08.003Z,94.90
2018-09-15T05:02:42.279Z,94.90
2018-09-15T05:05:16.550Z,94.80
2018-09-15T05:07:50.858Z,94.60
2018-09-15T05:10:25.067Z,94.90
2018-09-15T05:12:59.406Z,95.00
2018-09-15T05:15:33.738Z,95.00
2018-09-15T05:18:08.022Z,94.90
2018-09-15T05:20:42.383Z,94.90
2018-09-15T05:23:16.602Z,94.80
2018-09-15T05:25:50.879Z,95.00
2018-09-15T05:28:25.374Z,95.00
2018-09-15T05:30:59.902Z,95.00
2018-09-15T05:33:34.107Z,94.90
2018-09-15T05:36:08.403Z,94.90
2018-09-15T05:38:42.828Z,94.90
2018-09-15T05:41:17.169Z,94.90
2018-09-15T05:43:51.474Z,94.90
2018-09-15T05:46:25.720Z,94.90
2018-09-15T05:49:00.146Z,94.80
2018-09-15T05:51:34.533Z,94.80
2018-09-15T05:54:08.697Z,94.80
2018-09-15T05:56:42.982Z,94.70
2018-09-15T05:59:17.402Z,95.10
2018-09-15T06:01:51.709Z,94.70
2018-09-15T06:04:25.925Z,94.90
2018-09-15T06:07:00.380Z,94.80
2018-09-15T06:09:34.703Z,95.10
2018-09-15T06:12:08.990Z,94.90
2018-09-15T06:14:43.583Z,94.90
2018-09-15T06:17:17.903Z,94.90
2018-09-15T06:19:52.225Z,94.70
2018-09-15T06:22:26.653Z,94.80
2018-09-15T06:25:01.032Z,94.80
2018-09-15T06:27:35.434Z,94.80
2018-09-15T06:30:09.811Z,94.80
2018-09-15T06:32:44.204Z,94.90
2018-09-15T06:35:18.642Z,94.70
2018-09-15T06:37:53.166Z,94.70
2018-09-15T06:40:27.430Z,94.70
2018-09-15T06:43:01.827Z,94.30
2018-09-15T06:45:36.122Z,94.60
2018-09-15T06:48:10.547Z,94.60
2018-09-15T06:50:44.759Z,94.60
2018-09-15T06:53:19.057Z,94.70
2018-09-15T06:55:55.865Z,94.30
2018-09-15T06:58:30.118Z,94.70
2018-09-15T07:01:05.917Z,94.70
2018-09-15T07:03:40.138Z,94.80
2018-09-15T07:06:16.689Z,94.60
2018-09-15T07:08:50.998Z,94.90
2018-09-15T07:11:25.320Z,94.90
2018-09-15T07:13:59.734Z,94.80
2018-09-15T07:16:34.592Z,95.00
2018-09-15T07:19:09.048Z,94.90
2018-09-15T07:21:43.451Z,94.90
2018-09-15T07:24:17.694Z,94.60
2018-09-15T07:26:52.061Z,94.70
2018-09-15T07:29:26.445Z,95.10
2018-09-15T07:32:00.895Z,94.10
2018-09-15T07:34:35.142Z,94.40
2018-09-15T07:37:09.410Z,94.40
2018-09-15T07:39:43.969Z,94.10
2018-09-15T07:42:18.152Z,94.70
2018-09-15T07:44:52.613Z,94.40
2018-09-15T07:47:26.762Z,94.40
2018-09-15T07:50:01.390Z,94.50
2018-09-15T07:52:35.743Z,94.30
2018-09-15T07:55:10.127Z,94.40
2018-09-15T07:57:44.548Z,94.50
2018-09-15T08:00:18.750Z,93.90
2018-09-15T08:02:53.044Z,94.00
2018-09-15T08:05:27.525Z,93.90
2018-09-15T08:08:01.854Z,94.00
2018-09-15T08:10:36.197Z,93.80
2018-09-15T08:13:10.494Z,94.00
2018-09-15T08:15:44.806Z,93.70
2018-09-15T08:18:19.192Z,93.50
2018-09-15T08:20:53.591Z,93.30
2018-09-15T08:23:27.807Z,93.50
2018-09-15T08:26:02.292Z,93.80
2018-09-15T08:28:36.463Z,93.10
2018-09-15T08:31:10.882Z,93.60
2018-09-15T08:33:45.249Z,93.30
2018-09-15T08:36:19.522Z,92.90
2018-09-15T08:38:53.823Z,93.30
2018-09-15T08:41:28.147Z,93.00
2018-09-15T08:44:02.946Z,93.10
2018-09-15T08:46:39.135Z,92.80
2018-09-15T08:49:13.485Z,92.90
2018-09-15T08:51:47.713Z,92.90
2018-09-15T08:54:24.083Z,92.40
2018-09-15T08:56:58.262Z,92.20
2018-09-15T08:59:32.562Z,92.10
2018-09-15T09:02:11.107Z,92.20
2018-09-15T09:04:51.621Z,92.10
2018-09-15T09:07:30.903Z,92.30
2018-09-15T09:10:21.612Z,92.10
2018-09-15T09:12:59.416Z,92.40
2018-09-15T09:15:34.063Z,92.10
2018-09-15T09:18:09.989Z,91.70
2018-09-15T09:20:44.349Z,91.90
2018-09-15T09:23:20.154Z,91.90
2018-09-15T09:25:54.564Z,91.30
2018-09-15T09:28:28.830Z,90.90
2018-09-15T09:31:03.135Z,91.10
2018-09-15T09:33:37.578Z,91.90
2018-09-15T09:36:12.021Z,91.70
2018-09-15T09:38:50.350Z,91.90
2018-09-15T09:41:24.975Z,92.30
2018-09-15T09:44:05.702Z,93.70
2018-09-15T09:46:40.022Z,94.90
2018-09-15T09:49:14.251Z,94.90
2018-09-15T09:51:48.435Z,95.20
2018-09-15T09:54:22.674Z,95.30
2018-09-15T09:56:56.924Z,95.40
2018-09-15T09:59:31.141Z,95.50
2018-09-15T10:06:30.834Z,95.50
2018-09-15T10:09:07.967Z,95.40
2018-09-15T10:11:42.249Z,95.30
2018-09-15T10:14:16.525Z,95.10
2018-09-15T10:16:50.863Z,94.90
2018-09-15T10:19:25.311Z,94.40
2018-09-15T10:21:59.634Z,93.90
2018-09-15T10:24:34.150Z,93.50
2018-09-15T10:27:08.498Z,93.10
2018-09-15T10:29:42.711Z,93.70
2018-09-15T10:32:17.086Z,92.70
2018-09-15T10:34:51.471Z,92.30
2018-09-15T10:37:27.640Z,91.70
2018-09-15T10:40:03.014Z,92.50
2018-09-15T10:42:37.235Z,92.50
2018-09-15T10:45:11.563Z,91.50
2018-09-15T10:47:45.882Z,91.50
2018-09-15T10:50:20.302Z,92.00
2018-09-15T10:52:54.680Z,91.70
2018-09-15T10:55:28.977Z,92.20
2018-09-15T10:58:03.364Z,91.90
2018-09-15T11:00:37.794Z,92.20
2018-09-15T11:03:11.921Z,91.80
2018-09-15T11:05:46.278Z,91.60
2018-09-15T11:08:20.611Z,91.90
2018-09-15T11:10:54.895Z,92.00
2018-09-15T11:13:29.272Z,91.70
2018-09-15T11:16:03.499Z,91.60
2018-09-15T11:18:37.662Z,91.40
2018-09-15T11:21:11.994Z,91.50
2018-09-15T11:23:46.314Z,91.50
2018-09-15T11:26:20.694Z,91.10
2018-09-15T11:28:55.022Z,91.20
2018-09-15T11:31:32.794Z,90.30
2018-09-15T11:34:08.364Z,89.30
2018-09-15T11:36:42.634Z,90.20
2018-09-15T11:39:17.322Z,90.10
2018-09-15T11:41:51.702Z,89.80
2018-09-15T11:44:25.972Z,89.20
2018-09-15T11:47:00.261Z,88.50
2018-09-15T11:49:34.558Z,88.50
2018-09-15T11:52:09.035Z,88.10
2018-09-15T11:54:43.378Z,87.80
2018-09-15T11:57:17.582Z,88.40
2018-09-15T11:59:51.835Z,88.00
2018-09-15T12:02:28.054Z,88.80
2018-09-15T12:05:02.590Z,89.40
2018-09-15T12:07:36.794Z,89.50
2018-09-15T12:10:11.491Z,89.70
2018-09-15T12:12:45.743Z,89.50
2018-09-15T12:15:20.074Z,88.60
2018-09-15T12:17:54.585Z,90.10
2018-09-15T12:20:28.902Z,89.90
2018-09-15T12:23:03.298Z,89.50
2018-09-15T12:25:37.651Z,89.50
2018-09-15T12:28:11.803Z,88.90
2018-09-15T12:30:46.176Z,87.80
2018-09-15T12:33:20.502Z,87.40
2018-09-15T12:35:54.733Z,87.30
2018-09-15T12:38:29.110Z,87.40
2018-09-15T12:41:03.439Z,88.10
2018-09-15T12:43:37.710Z,88.50
2018-09-15T12:46:12.051Z,87.50
2018-09-15T12:48:46.485Z,87.20
2018-09-15T12:51:20.670Z,87.00
2018-09-15T12:53:55.059Z,87.00
2018-09-15T12:56:29.502Z,86.90
2018-09-15T12:59:03.830Z,86.70
2018-09-15T13:01:38.060Z,85.10
2018-09-15T13:04:12.498Z,84.80
2018-09-15T13:06:46.711Z,84.70
2018-09-15T13:09:21.026Z,84.90
2018-09-15T13:11:55.326Z,85.90
2018-09-15T13:14:29.808Z,87.00
2018-09-15T13:17:04.143Z,86.70
2018-09-15T13:19:38.730Z,87.10
2018-09-15T13:22:20.674Z,87.70
2018-09-15T13:25:03.229Z,87.80
2018-09-15T13:27:37.755Z,88.00
2018-09-15T13:30:12.079Z,87.60
2018-09-15T13:32:53.293Z,87.90
2018-09-15T13:35:27.709Z,87.40
2018-09-15T13:38:06.729Z,87.20
2018-09-15T13:43:37.035Z,86.40
2018-09-15T13:46:13.153Z,86.10
2018-09-15T13:48:47.601Z,85.60
2018-09-15T13:51:21.781Z,84.70
2018-09-15T13:54:01.476Z,83.50
2018-09-15T13:56:45.106Z,81.40
2018-09-15T13:59:19.331Z,80.80
2018-09-15T14:01:56.190Z,80.20
2018-09-15T14:04:49.951Z,78.80
2018-09-15T14:07:24.146Z,79.30
2018-09-15T14:09:58.351Z,77.10
2018-09-15T14:12:32.750Z,76.20
2018-09-15T14:15:07.259Z,75.40
2018-09-15T14:17:41.654Z,74.90
2018-09-15T14:20:15.883Z,74.40
2018-09-15T14:22:50.087Z,75.10
2018-09-15T14:25:24.467Z,74.00
2018-09-15T14:27:58.689Z,73.70
2018-09-15T14:30:33.077Z,72.90
2018-09-15T14:33:08.063Z,71.70
2018-09-15T14:35:42.417Z,71.80
2018-09-15T14:38:16.669Z,72.90
2018-09-15T14:40:50.954Z,71.30
2018-09-15T14:43:25.274Z,73.70
2018-09-15T14:45:59.574Z,73.70
2018-09-15T14:48:34.012Z,73.70
2018-09-15T14:51:08.340Z,74.70
2018-09-15T14:53:42.778Z,74.20
2018-09-15T14:56:17.102Z,74.20
2018-09-15T14:58:51.370Z,74.20
2018-09-15T15:01:25.714Z,73.30
2018-09-15T15:04:00.197Z,73.30
2018-09-15T15:06:34.658Z,74.20
2018-09-15T15:09:09.596Z,72.80
2018-09-15T15:11:43.819Z,71.70
2018-09-15T15:14:18.267Z,72.10
2018-09-15T15:16:52.750Z,72.40
2018-09-15T15:19:26.988Z,73.00
2018-09-15T15:22:01.447Z,73.90
2018-09-15T15:24:35.957Z,74.60
2018-09-15T15:27:10.253Z,74.50
2018-09-15T15:29:44.547Z,75.50
2018-09-15T15:32:18.942Z,75.00
2018-09-15T15:35:01.395Z,76.00
2018-09-15T15:37:36.038Z,77.00
2018-09-15T15:40:12.525Z,76.20
2018-09-15T15:42:47.004Z,76.80
2018-09-15T15:45:21.341Z,76.00
2018-09-15T15:47:58.461Z,76.40
2018-09-15T15:50:33.084Z,76.00
2018-09-15T15:53:08.776Z,77.00
2018-09-15T15:55:47.113Z,76.50
2018-09-15T15:58:21.634Z,76.90
2018-09-15T16:00:55.851Z,77.10
2018-09-15T16:03:30.358Z,77.80
2018-09-15T16:06:04.749Z,77.70
2018-09-15T16:08:39.074Z,77.70
2018-09-15T16:11:13.472Z,78.70
2018-09-15T16:13:48.129Z,78.60
2018-09-15T16:16:22.414Z,78.70
2018-09-15T16:18:56.562Z,78.80
2018-09-15T16:21:32.719Z,78.60
2018-09-15T16:24:07.078Z,78.70
2018-09-15T16:26:41.438Z,78.50
2018-09-15T16:29:16.126Z,79.00
2018-09-15T16:31:50.420Z,78.90
2018-09-15T16:34:24.675Z,79.20
2018-09-15T16:36:58.956Z,79.30
2018-09-15T16:39:33.466Z,79.60
2018-09-15T16:42:07.789Z,79.90
2018-09-15T16:44:42.153Z,79.90
2018-09-15T16:47:16.412Z,79.90
2018-09-15T16:49:50.785Z,80.50
2018-09-15T16:52:25.115Z,80.30
2018-09-15T16:54:59.378Z,80.30
2018-09-15T16:57:33.572Z,80.20
2018-09-15T17:00:07.942Z,80.20
2018-09-15T17:02:42.291Z,80.50
2018-09-15T17:05:16.457Z,80.30
2018-09-15T17:07:50.725Z,80.50
2018-09-15T17:10:25.027Z,79.00
2018-09-15T17:12:59.226Z,79.50
2018-09-15T17:15:33.382Z,79.50
2018-09-15T17:18:07.846Z,78.60
2018-09-15T17:20:42.150Z,78.40
2018-09-15T17:23:16.445Z,79.40
2018-09-15T17:25:50.795Z,79.20
2018-09-15T17:28:24.954Z,79.20
2018-09-15T17:30:59.274Z,79.50
2018-09-15T17:33:33.570Z,79.50
2018-09-15T17:36:08.018Z,80.00
2018-09-15T17:38:42.291Z,79.80
2018-09-15T17:41:16.683Z,80.30
2018-09-15T17:43:50.970Z,80.50
2018-09-15T17:46:25.399Z,80.60
2018-09-15T17:48:59.853Z,80.90
2018-09-15T17:51:34.098Z,80.90
2018-09-15T17:54:09.994Z,80.50
2018-09-15T17:56:44.168Z,81.20
2018-09-15T17:59:24.095Z,81.60
2018-09-15T18:01:58.613Z,81.40
2018-09-15T18:04:32.854Z,81.80
2018-09-15T18:07:07.305Z,81.30
2018-09-15T18:09:41.620Z,81.90
2018-09-15T18:12:15.833Z,82.40
2018-09-15T18:14:50.186Z,82.20
2018-09-15T18:17:24.637Z,82.60
2018-09-15T18:19:59.829Z,82.70
2018-09-15T18:22:34.285Z,82.90
2018-09-15T18:25:08.655Z,83.40
2018-09-15T18:27:43.077Z,83.20
2018-09-15T18:30:17.455Z,84.10
2018-09-15T18:32:51.722Z,84.20
2018-09-15T18:36:05.041Z,84.40
2018-09-15T18:38:40.881Z,84.60
2018-09-15T18:41:15.300Z,85.10
2018-09-15T18:46:45.021Z,85.70
2018-09-15T18:49:19.261Z,86.30
2018-09-15T18:51:53.638Z,86.00
2018-09-15T18:54:27.800Z,86.20
2018-09-15T18:57:02.122Z,87.40
2018-09-15T18:59:36.317Z,88.10
2018-09-15T19:02:43.170Z,88.00
2018-09-15T19:05:24.894Z,89.30
2018-09-15T19:08:06.377Z,88.20
2018-09-15T19:10:40.759Z,88.40
2018-09-15T19:13:15.086Z,88.30
2018-09-15T19:15:49.722Z,89.60
2018-09-15T19:18:24.072Z,90.40
2018-09-15T19:20:58.597Z,90.30
2018-09-15T19:23:35.062Z,90.40
2018-09-15T19:26:09.555Z,90.70
2018-09-15T19:28:43.868Z,90.90
2018-09-15T19:31:18.254Z,90.90
2018-09-15T19:33:52.532Z,91.20
2018-09-15T19:36:26.728Z,91.20
2018-09-15T19:39:01.099Z,91.20
2018-09-15T19:41:35.327Z,91.30
2018-09-15T19:44:09.798Z,90.70
2018-09-15T19:46:44.158Z,91.20
2018-09-15T19:49:18.411Z,91.40
2018-09-15T19:51:52.698Z,91.70
2018-09-15T19:54:26.995Z,92.00
2018-09-15T19:57:01.287Z,92.00
2018-09-15T19:59:35.565Z,92.00
2018-09-15T20:02:09.869Z,92.10
2018-09-15T20:04:44.221Z,92.50
2018-09-15T20:07:18.488Z,92.30
2018-09-15T20:09:52.698Z,92.60
2018-09-15T20:12:26.854Z,92.60
2018-09-15T20:15:01.174Z,92.40
2018-09-15T20:17:34.740Z,92.40
2018-09-15T20:20:08.090Z,92.70
2018-09-15T20:22:42.386Z,92.90
2018-09-15T20:25:16.922Z,92.70
2018-09-15T20:27:51.150Z,92.80
2018-09-15T20:30:25.389Z,93.00
2018-09-15T20:32:59.672Z,93.30
2018-09-15T20:35:34.057Z,93.00
2018-09-15T20:38:08.471Z,92.60
2018-09-15T20:40:42.790Z,92.90
2018-09-15T20:43:17.055Z,92.70
2018-09-15T20:45:51.382Z,92.80
2018-09-15T20:48:25.808Z,92.80
2018-09-15T20:51:00.099Z,92.80
2018-09-15T20:53:34.261Z,93.10
2018-09-15T20:56:08.627Z,93.20
2018-09-15T20:58:43.045Z,93.30
2018-09-15T21:01:17.410Z,93.20
2018-09-15T21:03:51.867Z,93.40
2018-09-15T21:06:26.053Z,93.40
2018-09-15T21:09:00.310Z,93.60
2018-09-15T21:11:34.547Z,93.90
2018-09-15T21:14:08.751Z,93.90
2018-09-15T21:16:43.058Z,93.90
2018-09-15T21:19:17.354Z,94.20
2018-09-15T21:21:52.023Z,94.30
2018-09-15T21:24:26.281Z,94.10
2018-09-15T21:27:00.499Z,93.70
2018-09-15T21:29:34.786Z,93.90
2018-09-15T21:32:09.146Z,94.00
2018-09-15T21:34:43.546Z,94.00
2018-09-15T21:37:17.798Z,94.10
2018-09-15T21:39:52.151Z,94.30
2018-09-15T21:42:26.322Z,94.30
2018-09-15T21:45:00.615Z,94.50
2018-09-15T21:47:34.807Z,94.40
2018-09-15T21:50:09.167Z,94.60
2018-09-15T21:52:43.566Z,94.80
2018-09-15T21:55:17.990Z,94.80
2018-09-15T21:57:52.493Z,94.70
2018-09-15T22:00:26.693Z,94.70
2018-09-15T22:03:00.970Z,94.80
2018-09-15T22:05:35.322Z,94.70
2018-09-15T22:08:09.654Z,94.80
2018-09-15T22:10:43.837Z,95.20
2018-09-15T22:13:18.458Z,95.00
2018-09-15T22:15:52.693Z,95.00
2018-09-15T22:18:26.961Z,95.00
2018-09-15T22:21:01.355Z,95.00
2018-09-15T22:23:35.687Z,95.60
2018-09-15T22:26:10.032Z,95.40
2018-09-15T22:28:44.489Z,95.40
2018-09-15T22:31:18.783Z,95.10
2018-09-15T22:33:53.034Z,95.70
2018-09-15T22:36:27.406Z,95.70
2018-09-15T22:39:01.612Z,95.60
2018-09-15T22:41:36.503Z,95.70
2018-09-15T22:44:10.978Z,96.10
2018-09-15T22:46:45.294Z,96.10
2018-09-15T22:49:19.644Z,96.20
2018-09-15T22:51:53.867Z,96.30
2018-09-15T22:54:28.173Z,96.40
2018-09-15T22:57:02.426Z,96.70
2018-09-15T22:59:36.730Z,97.00
2018-09-15T23:02:11.029Z,97.10
2018-09-15T23:04:45.215Z,97.10
2018-09-15T23:07:19.557Z,97.10
2018-09-15T23:09:53.787Z,96.90
2018-09-15T23:12:28.022Z,96.90
2018-09-15T23:15:02.592Z,97.10
2018-09-15T23:17:36.886Z,97.10
2018-09-15T23:20:11.150Z,97.10
2018-09-15T23:22:45.428Z,97.10
2018-09-15T23:25:19.870Z,97.20
2018-09-15T23:27:54.214Z,97.20
2018-09-15T23:30:28.439Z,97.40
2018-09-15T23:33:02.857Z,97.40
2018-09-15T23:35:37.047Z,97.50
2018-09-15T23:38:11.385Z,97.50
2018-09-15T23:40:45.787Z,97.50
2018-09-15T23:43:20.086Z,97.10
2018-09-15T23:45:54.298Z,97.50
2018-09-15T23:48:28.642Z,97.50
2018-09-15T23:51:03.093Z,97.40
2018-09-15T23:53:37.542Z,97.70
2018-09-15T23:56:11.839Z,97.70
2018-09-15T23:58:46.287Z,97.60
